MSSS/SAL METAR and TAF weather

Enter ICAO airport designator
Station Type Date Time Source
MSSS METAR 2021/06/23 23:50 UTC NOAA

MSSS 232350Z 18005KT 9999 FEW020 25/21 Q1016 A3001


Station Type Date Time Source
MSSS Decoded METAR 2021/06/23 23:50 UTC NOAA

San Salvador / Ilopango, El Salvador (MSSS) 13-42N 089-07W 621M
Jun 23, 2021 - 07:50 PM EDT / 2021.06.23 2350 UTC
Wind: from the S (180 degrees) at 6 MPH (5 KT):0
Visibility: greater than 7 mile(s):0
Sky conditions: mostly clear
Temperature: 77 F (25 C)
Dew Point: 69 F (21 C)
Relative Humidity: 78%
Pressure (altimeter): 30.01 in. Hg (1016 hPa)
ob: MSSS 232350Z 18005KT 9999 FEW020 25/21 Q1016 A3001
cycle: 0

Station Type Date Time Source
MSSS TAF 2021/06/24 06:25 UTC NOAA

TAF MSSS 240325Z 2406/2506 02005KT 9999 FEW017 TX29/2421Z TN21/2412Z
FM241100 33005KT SCT027
FM242000 18010KT SCT030 PROB30
TEMPO 2503/25 06 34010KT 6000 TSRA BKN027 SCT040CB

Example: see airport list